Time;durP1;ratioP1;P1;durP2;ratioP2;P2;SDS_P1;SDS_P2;PMS_P1;PMS_P2;Temp;Humidity;BMP_temperature;BMP_pressure;BME280_temperature;BME280_humidity;BME280_pressure;Samples;Min_cycle;Max_cycle;Signal;HPM_P1;HPM_P2
2023/10/06 00:01:42;;;;;;;11.98;6.75;;;9.60;99.90;;;;;;5014742;28;20121;-42
2023/10/06 00:04:15;;;;;;;13.20;7.47;;;9.50;99.90;;;;;;5019194;28;20502;-41
2023/10/06 00:06:43;;;;;;;14.25;7.20;;;9.60;99.90;;;;;;5013766;28;20060;-40
2023/10/06 00:09:21;;;;;;;13.68;6.90;;;9.60;99.90;;;;;;5030735;28;20097;-41
2023/10/06 00:11:50;;;;;;;15.27;7.80;;;9.60;99.90;;;;;;5027414;28;20049;-40
2023/10/06 00:14:39;;;;;;;14.13;7.38;;;9.50;99.90;;;;;;5019865;28;20058;-42
2023/10/06 00:17:15;;;;;;;12.10;6.82;;;9.60;99.90;;;;;;5012098;28;20122;-40
2023/10/06 00:19:43;;;;;;;16.05;7.55;;;9.50;99.90;;;;;;5013826;28;20060;-40
2023/10/06 00:24:42;;;;;;;13.20;7.22;;;9.50;99.90;;;;;;5013429;28;20049;-40
2023/10/06 00:27:11;;;;;;;15.02;6.35;;;9.50;99.90;;;;;;5017544;28;20097;-41
2023/10/06 00:29:43;;;;;;;12.35;6.75;;;9.50;99.90;;;;;;5016224;28;20104;-42
2023/10/06 00:32:23;;;;;;;13.23;6.93;;;9.40;99.90;;;;;;5012489;28;21207;-40
2023/10/06 00:34:54;;;;;;;13.02;6.85;;;9.40;99.90;;;;;;5011871;28;20049;-41
2023/10/06 00:37:24;;;;;;;16.27;7.75;;;9.40;99.90;;;;;;5019582;28;20092;-39
2023/10/06 00:39:56;;;;;;;12.38;7.07;;;9.40;99.90;;;;;;5013267;28;20058;-41
2023/10/06 00:42:23;;;;;;;15.85;6.90;;;9.40;99.90;;;;;;5011273;28;20050;-40
2023/10/06 00:44:52;;;;;;;13.77;6.85;;;9.30;99.90;;;;;;5011730;28;20046;-40
2023/10/06 00:47:21;;;;;;;12.77;6.97;;;9.40;99.90;;;;;;5017809;28;20041;-40
2023/10/06 00:49:51;;;;;;;13.20;6.07;;;9.30;99.90;;;;;;5009670;28;20046;-41
2023/10/06 00:52:21;;;;;;;10.43;5.95;;;9.30;99.90;;;;;;5017018;28;20057;-41
2023/10/06 00:54:49;;;;;;;12.90;6.20;;;9.20;99.90;;;;;;5012486;28;20056;-41
2023/10/06 00:57:19;;;;;;;12.45;6.30;;;9.20;99.90;;;;;;5016933;28;20570;-41
2023/10/06 00:59:46;;;;;;;15.80;7.10;;;9.20;99.90;;;;;;5012461;28;20153;-40
2023/10/06 01:02:15;;;;;;;14.20;6.68;;;9.20;99.90;;;;;;5016632;28;20054;-39
2023/10/06 01:04:45;;;;;;;17.10;7.60;;;9.20;99.90;;;;;;5010597;28;20136;-41
2023/10/06 01:07:13;;;;;;;13.55;6.20;;;9.10;99.90;;;;;;5012092;28;20059;-38
2023/10/06 01:09:57;;;;;;;14.40;6.15;;;9.10;99.90;;;;;;5019717;28;20054;-40
2023/10/06 01:12:26;;;;;;;14.73;6.43;;;9.10;99.90;;;;;;5013922;28;20046;-40
2023/10/06 01:15:16;;;;;;;15.30;6.32;;;9.10;99.90;;;;;;5010539;28;20415;-41
2023/10/06 01:17:41;;;;;;;14.02;6.85;;;9.10;99.90;;;;;;5015853;28;20050;-39
2023/10/06 01:20:10;;;;;;;10.85;6.10;;;9.10;99.90;;;;;;5011858;28;20062;-41
2023/10/06 01:22:44;;;;;;;11.82;6.20;;;9.10;99.90;;;;;;5012330;28;20038;-38
2023/10/06 01:25:21;;;;;;;15.38;6.45;;;9.00;99.90;;;;;;5019752;28;20061;-40
2023/10/06 01:27:50;;;;;;;12.70;6.97;;;9.00;99.90;;;;;;5026882;28;20514;-41
2023/10/06 01:30:19;;;;;;;12.68;6.60;;;9.00;99.90;;;;;;5017566;28;20136;-42
2023/10/06 01:32:50;;;;;;;18.20;6.57;;;8.90;99.90;;;;;;5033293;28;20534;-40
2023/10/06 01:35:23;;;;;;;14.55;6.53;;;8.90;99.90;;;;;;5036334;28;20057;-42
2023/10/06 01:37:57;;;;;;;11.52;6.18;;;8.90;99.90;;;;;;5034802;28;20053;-43
2023/10/06 01:42:52;;;;;;;13.60;6.28;;;8.90;99.90;;;;;;5011253;28;20057;-39
2023/10/06 01:45:22;;;;;;;10.93;5.70;;;8.90;99.90;;;;;;5019919;28;20089;-41
2023/10/06 01:47:56;;;;;;;14.00;5.78;;;8.90;99.90;;;;;;5022398;28;20065;-41
2023/10/06 01:50:27;;;;;;;13.52;6.68;;;8.90;99.90;;;;;;5018609;28;20037;-42
2023/10/06 01:52:58;;;;;;;14.07;6.30;;;8.90;99.90;;;;;;5014651;28;20077;-44
2023/10/06 01:55:26;;;;;;;13.23;6.70;;;8.90;99.90;;;;;;5014498;28;20060;-40
2023/10/06 01:57:54;;;;;;;13.65;6.57;;;8.90;99.90;;;;;;5010737;28;20050;-40
2023/10/06 02:00:26;;;;;;;11.93;6.43;;;8.90;99.90;;;;;;5010300;28;20061;-41
2023/10/06 02:02:54;;;;;;;11.00;5.72;;;8.90;99.90;;;;;;5008894;28;20058;-40
2023/10/06 02:05:21;;;;;;;13.25;6.18;;;8.90;99.90;;;;;;5012637;28;20519;-40
2023/10/06 02:07:49;;;;;;;11.27;6.13;;;8.80;99.90;;;;;;5026339;28;20037;-40
2023/10/06 02:10:18;;;;;;;14.13;7.07;;;8.80;99.90;;;;;;5031823;28;20107;-41
2023/10/06 02:12:45;;;;;;;10.98;6.35;;;8.80;99.90;;;;;;5027016;28;20437;-41
2023/10/06 02:15:13;;;;;;;20.05;7.07;;;8.80;99.90;;;;;;5028974;28;20065;-41
2023/10/06 02:17:40;;;;;;;16.55;6.78;;;8.80;99.90;;;;;;5028556;28;20061;-40
2023/10/06 02:20:28;;;;;;;12.75;6.80;;;8.80;99.90;;;;;;5027647;28;20050;-41
2023/10/06 02:23:00;;;;;;;15.02;6.47;;;8.70;99.90;;;;;;5036822;28;20077;-42
2023/10/06 02:25:28;;;;;;;12.38;6.50;;;8.70;99.90;;;;;;5017167;28;20525;-41
2023/10/06 02:27:59;;;;;;;13.18;6.72;;;8.70;99.90;;;;;;5016619;28;20046;-41
2023/10/06 02:30:41;;;;;;;16.53;7.07;;;8.70;99.90;;;;;;5025327;28;20481;-40
2023/10/06 02:33:11;;;;;;;15.15;7.00;;;8.70;99.90;;;;;;5025450;28;21135;-42
2023/10/06 02:35:45;;;;;;;15.77;7.55;;;8.70;99.90;;;;;;5028642;28;20149;-39
2023/10/06 02:38:15;;;;;;;13.23;6.53;;;8.60;99.90;;;;;;5018500;28;20107;-41
2023/10/06 02:40:45;;;;;;;12.13;6.50;;;8.70;99.90;;;;;;5020564;28;20060;-41
2023/10/06 02:43:16;;;;;;;13.63;7.18;;;8.60;99.90;;;;;;5017542;28;20077;-40
2023/10/06 02:45:44;;;;;;;13.45;7.18;;;8.60;99.90;;;;;;5016990;28;20095;-41
2023/10/06 02:48:15;;;;;;;14.90;7.00;;;8.60;99.90;;;;;;5019124;28;20053;-40
2023/10/06 02:50:46;;;;;;;17.42;7.60;;;8.70;99.90;;;;;;5017027;28;20107;-41
2023/10/06 02:53:14;;;;;;;18.00;6.80;;;8.70;99.90;;;;;;5019836;28;20053;-40
2023/10/06 02:55:45;;;;;;;15.60;7.30;;;8.60;99.90;;;;;;5021603;28;20076;-39
2023/10/06 02:58:30;;;;;;;13.10;7.10;;;8.60;99.90;;;;;;5021078;28;20049;-40
2023/10/06 03:00:58;;;;;;;12.20;6.45;;;8.60;99.90;;;;;;5019451;28;20282;-42
2023/10/06 03:03:29;;;;;;;15.20;6.50;;;8.60;99.90;;;;;;5015243;28;20252;-42
2023/10/06 03:05:58;;;;;;;13.70;7.47;;;8.60;99.90;;;;;;5018328;28;20396;-41
2023/10/06 03:08:28;;;;;;;14.02;7.60;;;8.60;99.90;;;;;;5027718;28;20046;-42
2023/10/06 03:10:55;;;;;;;14.82;7.50;;;8.60;99.90;;;;;;5017621;28;20042;-42
2023/10/06 03:13:36;;;;;;;12.82;6.90;;;8.60;99.90;;;;;;5014958;28;20064;-41
2023/10/06 03:16:10;;;;;;;16.58;7.70;;;8.60;99.90;;;;;;5026067;28;20054;-41
2023/10/06 03:18:39;;;;;;;15.77;7.57;;;8.50;99.90;;;;;;5022087;28;20052;-41
2023/10/06 03:21:30;;;;;;;16.20;7.57;;;8.50;99.90;;;;;;5016228;28;20046;-39
2023/10/06 03:24:05;;;;;;;19.55;8.85;;;8.50;99.90;;;;;;5028832;28;20141;-43
2023/10/06 03:26:38;;;;;;;14.13;7.28;;;8.50;99.90;;;;;;5025269;28;20072;-42
2023/10/06 03:29:11;;;;;;;17.40;7.72;;;8.50;99.90;;;;;;5032733;28;20072;-40
2023/10/06 03:31:44;;;;;;;15.70;7.53;;;8.40;99.90;;;;;;5018685;28;20054;-40
2023/10/06 03:34:22;;;;;;;14.63;7.50;;;8.40;99.90;;;;;;5019094;28;20037;-41
2023/10/06 03:36:53;;;;;;;16.35;7.57;;;8.40;99.90;;;;;;5019425;28;20308;-40
2023/10/06 03:39:27;;;;;;;;;;;8.40;99.90;;;;;;5013978;28;20057;-41
2023/10/06 03:42:05;;;;;;;18.10;7.47;;;8.40;99.90;;;;;;5031685;28;20012;-41
2023/10/06 03:44:34;;;;;;;14.20;7.28;;;8.40;99.90;;;;;;5024955;28;20072;-39
2023/10/06 03:47:07;;;;;;;17.55;7.47;;;8.40;99.90;;;;;;5030836;28;20045;-43
2023/10/06 03:49:35;;;;;;;17.73;7.55;;;8.40;99.90;;;;;;5047700;28;20100;-42
2023/10/06 03:52:09;;;;;;;12.70;6.88;;;8.30;99.90;;;;;;5028290;28;20049;-40
2023/10/06 03:54:37;;;;;;;15.27;7.18;;;8.30;99.90;;;;;;5024154;28;20061;-41
2023/10/06 03:57:04;;;;;;;16.27;7.90;;;8.20;99.90;;;;;;5017997;28;20038;-41
2023/10/06 03:59:32;;;;;;;17.10;7.55;;;8.20;99.90;;;;;;5021364;28;20053;-41
2023/10/06 04:02:02;;;;;;;14.68;7.28;;;8.20;99.90;;;;;;5035405;28;20099;-41
2023/10/06 04:04:30;;;;;;;14.73;7.55;;;8.20;99.90;;;;;;5024739;28;20046;-43
2023/10/06 04:06:58;;;;;;;12.35;7.57;;;8.20;99.90;;;;;;5023865;28;20069;-41
2023/10/06 04:09:28;;;;;;;16.80;7.45;;;8.20;99.90;;;;;;5021626;28;20080;-40
2023/10/06 04:12:01;;;;;;;16.10;8.32;;;8.10;99.90;;;;;;5021508;28;20050;-41
2023/10/06 04:14:31;;;;;;;16.42;8.20;;;8.10;99.90;;;;;;5029715;28;20045;-40
2023/10/06 04:17:01;;;;;;;13.52;7.35;;;8.10;99.90;;;;;;5023096;28;20050;-42
2023/10/06 04:19:29;;;;;;;12.77;7.47;;;8.10;99.90;;;;;;5022256;28;20152;-42
2023/10/06 04:21:56;;;;;;;14.23;8.25;;;8.10;99.90;;;;;;5024720;28;20113;-41
2023/10/06 04:24:23;;;;;;;15.32;7.63;;;8.00;99.90;;;;;;5028922;28;20165;-40
2023/10/06 04:26:51;;;;;;;13.32;8.07;;;8.00;99.90;;;;;;5033506;28;20103;-43
2023/10/06 04:29:19;;;;;;;15.15;7.55;;;8.00;99.90;;;;;;5028065;28;20052;-41
2023/10/06 04:31:46;;;;;;;22.30;8.85;;;8.00;99.90;;;;;;5027434;28;20065;-42
2023/10/06 04:34:14;;;;;;;14.43;8.52;;;8.00;99.90;;;;;;5022338;28;20542;-44
2023/10/06 04:36:42;;;;;;;16.50;8.27;;;8.00;99.90;;;;;;5022786;28;20073;-41
2023/10/06 04:39:11;;;;;;;18.65;9.50;;;8.00;99.90;;;;;;5027089;28;20053;-43
2023/10/06 04:41:41;;;;;;;13.90;8.13;;;8.00;99.90;;;;;;5030338;28;20135;-42
2023/10/06 04:44:10;;;;;;;20.55;8.68;;;8.00;99.90;;;;;;5026919;28;20602;-43
2023/10/06 04:46:37;;;;;;;14.73;7.65;;;7.90;99.90;;;;;;5017850;28;20077;-41
2023/10/06 04:49:07;;;;;;;16.77;8.52;;;7.90;99.90;;;;;;5025525;28;20057;-41
2023/10/06 04:51:35;;;;;;;16.65;8.60;;;7.90;99.90;;;;;;5021987;28;20050;-42
2023/10/06 04:54:02;;;;;;;17.65;9.15;;;7.80;99.90;;;;;;5013234;28;20046;-41
2023/10/06 04:56:32;;;;;;;15.30;8.55;;;7.80;99.90;;;;;;5016987;28;20065;-41
2023/10/06 04:59:00;;;;;;;15.85;8.80;;;7.90;99.90;;;;;;5023538;28;20045;-41
2023/10/06 05:01:31;;;;;;;17.90;9.43;;;7.90;99.90;;;;;;5016726;28;20045;-41
2023/10/06 05:03:59;;;;;;;15.52;8.27;;;7.90;99.90;;;;;;5019159;28;20055;-42
2023/10/06 05:06:26;;;;;;;17.98;8.90;;;7.80;99.90;;;;;;5015744;28;20498;-41
2023/10/06 05:08:54;;;;;;;20.70;9.57;;;7.80;99.90;;;;;;5037910;28;20112;-42
2023/10/06 05:11:23;;;;;;;19.40;9.75;;;7.80;99.90;;;;;;5034919;28;20157;-42
2023/10/06 05:13:54;;;;;;;16.38;9.48;;;7.80;99.90;;;;;;5033363;28;20053;-41
2023/10/06 05:16:22;;;;;;;21.13;11.73;;;7.80;99.90;;;;;;5033739;28;20049;-41
2023/10/06 05:18:51;;;;;;;16.52;9.07;;;7.80;99.90;;;;;;5025490;28;20056;-41
2023/10/06 05:21:20;;;;;;;28.05;13.13;;;7.90;99.90;;;;;;5033327;28;20064;-41
2023/10/06 05:23:48;;;;;;;18.38;10.35;;;7.90;99.90;;;;;;5030081;28;20588;-41
2023/10/06 05:26:15;;;;;;;18.83;9.18;;;7.90;99.90;;;;;;5027965;28;20042;-41
2023/10/06 05:28:44;;;;;;;16.50;8.77;;;7.90;99.90;;;;;;5025226;28;20104;-40
2023/10/06 05:31:12;;;;;;;17.45;10.07;;;8.00;99.90;;;;;;5030892;28;20065;-42
2023/10/06 05:33:40;;;;;;;32.25;16.15;;;8.00;99.90;;;;;;5026351;28;20061;-41
2023/10/06 05:36:12;;;;;;;22.13;13.27;;;8.00;99.90;;;;;;5020904;28;20049;-41
2023/10/06 05:38:45;;;;;;;20.33;9.70;;;8.10;99.90;;;;;;5019415;28;20053;-42
2023/10/06 05:41:12;;;;;;;18.35;10.10;;;8.10;99.90;;;;;;5025369;28;20053;-41
2023/10/06 05:43:41;;;;;;;20.15;11.32;;;8.20;99.90;;;;;;5019619;28;20100;-41
2023/10/06 05:46:09;;;;;;;26.77;14.30;;;8.20;99.90;;;;;;5030635;28;20105;-41
2023/10/06 05:48:38;;;;;;;17.10;10.77;;;8.30;99.90;;;;;;5032954;28;20434;-43
2023/10/06 05:51:08;;;;;;;18.08;9.88;;;8.30;99.90;;;;;;5030931;28;20042;-41
2023/10/06 05:53:43;;;;;;;15.65;8.80;;;8.30;99.90;;;;;;5029375;28;20125;-40
2023/10/06 05:56:11;;;;;;;21.05;10.80;;;8.40;99.90;;;;;;5031274;28;20062;-42
2023/10/06 05:58:40;;;;;;;18.20;11.05;;;8.40;99.90;;;;;;5034037;28;20056;-42
2023/10/06 06:01:18;;;;;;;16.08;9.13;;;8.50;99.90;;;;;;5040294;28;20049;-41
2023/10/06 06:03:46;;;;;;;21.08;9.77;;;8.60;99.90;;;;;;5034119;28;20049;-42
2023/10/06 06:06:15;;;;;;;16.27;8.65;;;8.60;99.90;;;;;;5033876;28;20498;-40
2023/10/06 06:08:47;;;;;;;17.30;9.60;;;8.60;99.90;;;;;;5029332;28;20107;-43
2023/10/06 06:11:16;;;;;;;16.17;8.45;;;8.70;99.90;;;;;;5031689;28;20474;-42
2023/10/06 06:13:44;;;;;;;24.95;9.30;;;8.70;99.90;;;;;;5019943;28;20357;-40
2023/10/06 06:16:22;;;;;;;19.17;9.05;;;8.70;99.90;;;;;;5019659;28;20046;-41
2023/10/06 06:18:50;;;;;;;16.90;8.88;;;8.80;99.90;;;;;;5025864;28;20513;-42
2023/10/06 06:21:24;;;;;;;19.05;9.38;;;8.80;99.90;;;;;;5013562;28;20054;-39
2023/10/06 06:23:56;;;;;;;16.58;9.60;;;8.80;99.90;;;;;;5017029;28;20496;-38
2023/10/06 06:26:24;;;;;;;17.15;9.73;;;8.80;99.90;;;;;;5020244;28;20055;-38
2023/10/06 06:28:52;;;;;;;20.27;9.63;;;8.90;99.90;;;;;;5021226;28;20046;-42
2023/10/06 06:31:21;;;;;;;17.85;9.50;;;9.00;99.90;;;;;;5021444;28;20053;-42
2023/10/06 06:33:55;;;;;;;20.20;8.93;;;9.10;99.90;;;;;;5019124;28;20125;-42
2023/10/06 06:36:26;;;;;;;20.88;10.25;;;9.10;99.90;;;;;;5019789;28;20049;-43
2023/10/06 06:38:54;;;;;;;19.88;8.95;;;9.30;99.90;;;;;;5028114;28;20052;-40
2023/10/06 06:41:21;;;;;;;20.35;10.82;;;9.40;99.90;;;;;;5027126;28;20050;-41
2023/10/06 06:43:49;;;;;;;18.90;10.35;;;9.40;99.90;;;;;;5028086;28;20057;-42
2023/10/06 06:46:17;;;;;;;20.08;10.02;;;9.50;99.90;;;;;;5023880;28;20049;-40
2023/10/06 06:48:46;;;;;;;14.43;9.20;;;9.50;99.90;;;;;;5017703;28;20084;-40
2023/10/06 06:51:14;;;;;;;16.80;10.63;;;9.50;99.90;;;;;;5020478;28;20530;-39
2023/10/06 06:53:41;;;;;;;20.98;10.55;;;9.60;99.90;;;;;;5028926;28;20121;-42
2023/10/06 06:56:10;;;;;;;19.05;10.48;;;9.60;99.90;;;;;;5019881;28;20053;-39
2023/10/06 06:58:39;;;;;;;18.70;10.30;;;9.70;99.90;;;;;;5023457;28;20139;-41
2023/10/06 07:01:14;;;;;;;22.38;10.05;;;9.60;99.90;;;;;;5029232;28;20049;-43
2023/10/06 07:03:42;;;;;;;17.08;10.35;;;9.60;99.90;;;;;;5022426;28;20049;-42
2023/10/06 07:06:16;;;;;;;23.50;11.02;;;9.80;99.90;;;;;;5027812;28;20149;-40
2023/10/06 07:08:47;;;;;;;20.65;10.35;;;9.90;99.90;;;;;;5031180;28;20046;-40
2023/10/06 07:11:15;;;;;;;21.13;11.50;;;10.00;99.90;;;;;;5026332;28;20521;-39
2023/10/06 07:13:45;;;;;;;22.52;11.13;;;10.10;99.90;;;;;;5037069;28;20055;-41
2023/10/06 07:16:14;;;;;;;17.52;10.80;;;10.20;99.90;;;;;;5035950;28;20038;-40
2023/10/06 07:18:42;;;;;;;21.98;10.50;;;10.20;99.90;;;;;;5020606;28;20403;-42
2023/10/06 07:21:10;;;;;;;20.90;11.52;;;10.30;99.90;;;;;;5012509;28;20042;-40
2023/10/06 07:23:38;;;;;;;21.50;10.52;;;10.40;99.90;;;;;;5012757;28;20049;-41
2023/10/06 07:26:13;;;;;;;19.75;10.95;;;10.40;99.90;;;;;;5012326;28;20042;-41
2023/10/06 07:28:41;;;;;;;20.27;10.57;;;10.40;99.90;;;;;;5013093;28;20430;-42
2023/10/06 07:31:12;;;;;;;20.20;11.23;;;10.40;99.90;;;;;;5019714;28;20049;-37
2023/10/06 07:33:43;;;;;;;;;;;10.50;99.90;;;;;;5019915;28;20096;-39
2023/10/06 07:36:17;;;;;;;18.48;11.55;;;10.60;99.90;;;;;;5012384;28;20398;-40
2023/10/06 07:38:45;;;;;;;21.83;11.68;;;10.70;99.90;;;;;;5018946;28;20048;-38
2023/10/06 07:41:23;;;;;;;16.70;10.43;;;10.80;99.90;;;;;;5020367;28;20104;-41
2023/10/06 07:43:51;;;;;;;21.13;12.07;;;10.90;99.90;;;;;;5012510;28;20054;-41
2023/10/06 07:46:19;;;;;;;24.13;11.30;;;11.00;99.90;;;;;;5019942;28;20052;-40
2023/10/06 07:48:46;;;;;;;24.15;10.05;;;11.00;99.90;;;;;;5022647;28;20553;-39
2023/10/06 07:51:14;;;;;;;18.17;10.77;;;10.90;99.90;;;;;;5017699;28;20061;-39
2023/10/06 07:53:43;;;;;;;26.65;10.55;;;11.00;99.90;;;;;;5017800;28;20068;-42
2023/10/06 07:56:11;;;;;;;20.13;10.73;;;11.20;99.90;;;;;;5014566;28;20054;-40
2023/10/06 07:58:43;;;;;;;18.55;11.25;;;11.30;99.90;;;;;;5018987;28;20073;-43
2023/10/06 08:01:12;;;;;;;19.65;11.02;;;11.30;99.90;;;;;;5025935;28;20073;-41
2023/10/06 08:03:41;;;;;;;21.73;10.73;;;11.40;99.90;;;;;;5032768;28;20057;-41
2023/10/06 08:06:10;;;;;;;25.67;11.18;;;11.50;99.90;;;;;;5030260;28;20069;-40
2023/10/06 08:08:38;;;;;;;20.80;11.75;;;11.60;99.90;;;;;;5015639;28;20510;-40
2023/10/06 08:11:06;;;;;;;20.35;11.88;;;11.60;99.90;;;;;;5012352;28;20050;-39
2023/10/06 08:13:34;;;;;;;21.75;11.43;;;11.70;99.90;;;;;;5010656;28;20046;-42
2023/10/06 08:16:02;;;;;;;21.20;11.38;;;11.90;99.90;;;;;;5012175;28;20608;-41
2023/10/06 08:18:30;;;;;;;20.33;10.93;;;11.90;99.90;;;;;;5035453;28;20049;-42
2023/10/06 08:21:00;;;;;;;22.13;10.55;;;12.10;99.90;;;;;;5021149;28;20081;-42
2023/10/06 08:23:32;;;;;;;25.02;11.88;;;12.30;99.90;;;;;;5011064;28;20042;-42
2023/10/06 08:26:00;;;;;;;20.63;12.05;;;12.60;99.90;;;;;;5019255;28;20050;-41
2023/10/06 08:28:31;;;;;;;21.60;11.55;;;12.70;99.90;;;;;;5017381;28;20495;-42
2023/10/06 08:31:02;;;;;;;17.13;9.38;;;12.80;99.90;;;;;;5011401;28;20038;-42
2023/10/06 08:33:30;;;;;;;26.77;12.00;;;13.00;99.90;;;;;;5015895;28;20045;-41
2023/10/06 08:36:00;;;;;;;20.75;11.45;;;13.10;99.90;;;;;;5017273;28;20042;-40
2023/10/06 08:38:28;;;;;;;24.80;11.65;;;13.10;99.90;;;;;;5018275;28;20549;-41
2023/10/06 08:41:00;;;;;;;25.02;10.80;;;13.30;99.90;;;;;;5010598;28;20132;-38
2023/10/06 08:43:28;;;;;;;20.23;10.98;;;13.20;99.90;;;;;;5010432;28;20133;-40
2023/10/06 08:45:59;;;;;;;22.20;11.70;;;13.40;99.90;;;;;;5014414;28;20451;-41
2023/10/06 08:48:35;;;;;;;24.15;14.45;;;13.30;99.90;;;;;;5016997;28;20045;-41
2023/10/06 08:51:07;;;;;;;21.65;11.38;;;13.50;99.90;;;;;;5010881;28;20052;-40
2023/10/06 08:53:40;;;;;;;20.52;10.73;;;13.70;99.90;;;;;;5018489;28;20471;-41
2023/10/06 08:56:08;;;;;;;21.60;10.13;;;13.90;99.90;;;;;;5015992;28;20045;-40
2023/10/06 08:58:36;;;;;;;20.15;9.50;;;14.00;99.90;;;;;;5009965;28;20037;-40
2023/10/06 09:01:06;;;;;;;16.17;8.65;;;13.90;99.90;;;;;;5012859;28;20153;-41
2023/10/06 09:03:34;;;;;;;24.95;9.95;;;14.10;99.90;;;;;;5020820;28;20481;-42
2023/10/06 09:06:03;;;;;;;22.13;9.63;;;14.10;99.90;;;;;;5014720;28;20046;-41
2023/10/06 09:08:39;;;;;;;26.70;16.90;;;14.30;99.90;;;;;;5017644;28;20061;-41
2023/10/06 09:11:06;;;;;;;19.33;11.25;;;14.50;99.90;;;;;;5020218;28;20042;-42
2023/10/06 09:13:34;;;;;;;19.33;8.80;;;14.60;99.90;;;;;;5010041;28;20053;-42
2023/10/06 09:16:03;;;;;;;20.33;10.20;;;14.70;99.90;;;;;;5014888;28;20060;-41
2023/10/06 09:18:34;;;;;;;18.73;9.10;;;14.80;99.90;;;;;;5016853;28;20140;-41
2023/10/06 09:21:12;;;;;;;17.63;10.02;;;14.90;99.90;;;;;;5010088;28;20046;-41
2023/10/06 09:23:42;;;;;;;16.58;9.07;;;15.10;99.90;;;;;;5017889;28;20112;-43
2023/10/06 09:26:15;;;;;;;18.40;9.77;;;15.30;99.90;;;;;;5009880;28;20435;-42
2023/10/06 09:28:51;;;;;;;17.15;9.43;;;15.40;99.90;;;;;;5010446;28;20042;-41
2023/10/06 09:31:36;;;;;;;17.50;8.75;;;15.50;99.90;;;;;;5013809;28;20395;-42
2023/10/06 09:34:08;;;;;;;15.30;8.63;;;15.70;99.90;;;;;;5009200;28;20046;-42
2023/10/06 09:36:43;;;;;;;15.27;8.10;;;15.80;99.90;;;;;;5011044;28;20049;-42
2023/10/06 09:39:24;;;;;;;14.95;8.20;;;16.00;99.90;;;;;;5010856;28;20057;-42
2023/10/06 09:41:54;;;;;;;15.48;7.50;;;16.20;99.90;;;;;;5015022;28;20061;-41
2023/10/06 09:44:23;;;;;;;15.32;7.30;;;16.30;99.90;;;;;;5015382;28;20466;-41
2023/10/06 09:46:53;;;;;;;13.63;7.05;;;16.20;99.90;;;;;;5010127;28;20137;-41
2023/10/06 09:49:21;;;;;;;14.77;6.40;;;16.50;99.90;;;;;;5011693;28;20046;-42
2023/10/06 09:51:52;;;;;;;18.17;7.70;;;16.50;99.90;;;;;;5023587;28;20096;-42
2023/10/06 09:54:20;;;;;;;14.60;7.10;;;16.50;99.90;;;;;;5016318;28;20095;-42
2023/10/06 09:56:54;;;;;;;14.40;7.38;;;16.70;99.90;;;;;;5012866;28;20053;-41
2023/10/06 09:59:24;;;;;;;16.20;7.15;;;16.90;99.90;;;;;;5015876;28;20138;-43
2023/10/06 10:01:53;;;;;;;15.38;7.95;;;17.20;99.90;;;;;;5014433;28;20054;-39
2023/10/06 10:04:24;;;;;;;13.68;6.70;;;17.40;99.90;;;;;;5017094;28;21011;-44
2023/10/06 10:06:51;;;;;;;14.82;7.45;;;17.70;99.90;;;;;;5014991;28;20044;-41
2023/10/06 10:09:20;;;;;;;12.90;6.88;;;17.90;99.90;;;;;;5012773;28;20148;-41
2023/10/06 10:12:37;;;;;;;11.65;6.50;;;18.00;99.90;;;;;;5011083;28;20069;-40
2023/10/06 10:15:37;;;;;;;13.23;7.13;;;18.20;99.90;;;;;;4973445;28;20532;-43
2023/10/06 10:18:23;;;;;;;14.90;7.28;;;18.20;99.90;;;;;;4980885;28;20501;-41
2023/10/06 10:20:51;;;;;;;10.93;6.53;;;18.20;99.90;;;;;;4978919;28;20404;-38
2023/10/06 10:23:20;;;;;;;12.68;7.45;;;18.40;99.90;;;;;;4973872;28;20074;-43
2023/10/06 10:25:47;;;;;;;13.32;7.55;;;18.50;99.90;;;;;;4968157;28;20055;-47
2023/10/06 10:28:27;;;;;;;21.27;12.45;;;18.60;99.90;;;;;;4967926;28;20162;-41
2023/10/06 10:30:59;;;;;;;10.68;7.43;;;18.90;99.90;;;;;;4973185;28;20074;-43
2023/10/06 10:33:33;;;;;;;13.57;7.22;;;18.80;99.90;;;;;;4983398;28;20054;-44
2023/10/06 10:36:12;;;;;;;11.50;7.65;;;19.10;99.90;;;;;;4977391;28;20106;-42
2023/10/06 10:38:41;;;;;;;13.63;8.93;;;19.60;99.90;;;;;;4981735;28;20098;-43
2023/10/06 10:41:11;;;;;;;11.20;7.85;;;20.10;99.90;;;;;;4982002;28;20050;-41
2023/10/06 10:43:41;;;;;;;14.25;7.53;;;19.80;99.90;;;;;;4977200;28;20443;-41
2023/10/06 10:46:09;;;;;;;13.57;8.10;;;19.80;99.90;;;;;;4971046;28;20137;-42
2023/10/06 10:48:38;;;;;;;14.02;7.60;;;19.50;99.90;;;;;;4972608;28;20047;-41
2023/10/06 10:51:13;;;;;;;15.45;7.88;;;20.00;99.90;;;;;;4979149;28;20564;-42
2023/10/06 10:53:43;;;;;;;16.13;8.25;;;20.10;99.90;;;;;;5024127;28;20137;-41
2023/10/06 10:56:26;;;;;;;13.80;8.02;;;20.10;99.90;;;;;;5012534;28;20100;-39
2023/10/06 10:58:55;;;;;;;12.32;7.78;;;20.20;99.90;;;;;;5012361;28;20092;-42
2023/10/06 11:01:38;;;;;;;12.63;7.55;;;20.70;99.90;;;;;;5018023;28;20042;-42
2023/10/06 11:04:21;;;;;;;9.52;7.80;;;20.80;99.90;;;;;;5011978;28;20052;-41
2023/10/06 11:06:49;;;;;;;12.18;7.40;;;20.40;99.90;;;;;;5019757;28;20137;-42
2023/10/06 11:09:30;;;;;;;14.43;7.82;;;20.80;99.90;;;;;;5013831;28;20470;-41
2023/10/06 11:12:00;;;;;;;13.38;8.10;;;20.70;99.90;;;;;;5020758;28;20058;-42
2023/10/06 11:14:51;;;;;;;10.68;7.57;;;21.00;99.90;;;;;;5020883;28;20042;-40
2023/10/06 11:17:29;;;;;;;11.25;8.15;;;21.10;99.90;;;;;;5026233;28;20144;-41
2023/10/06 11:20:04;;;;;;;12.85;7.10;;;21.10;99.90;;;;;;5021337;28;20053;-41
2023/10/06 11:22:33;;;;;;;15.98;8.02;;;20.60;99.90;;;;;;5018651;28;20046;-41
2023/10/06 11:25:06;;;;;;;12.77;7.50;;;20.50;99.90;;;;;;5018560;28;20053;-43
2023/10/06 11:27:34;;;;;;;14.07;7.55;;;20.50;99.90;;;;;;5018716;28;20656;-40
2023/10/06 11:30:08;;;;;;;15.90;7.72;;;20.90;99.90;;;;;;5021073;28;20065;-42
2023/10/06 11:32:35;;;;;;;12.68;8.00;;;21.30;99.90;;;;;;5013102;28;20054;-42
2023/10/06 11:35:04;;;;;;;12.23;7.32;;;21.80;99.90;;;;;;5013598;28;20161;-40
2023/10/06 11:37:33;;;;;;;11.20;7.53;;;22.30;99.90;;;;;;5017889;28;20058;-42
2023/10/06 11:40:01;;;;;;;11.80;8.10;;;22.50;99.90;;;;;;5014603;28;20060;-40
2023/10/06 11:42:30;;;;;;;13.23;8.05;;;22.30;99.90;;;;;;5013919;28;20076;-41
2023/10/06 11:44:59;;;;;;;16.27;7.82;;;21.80;99.90;;;;;;5017720;28;20046;-41
2023/10/06 11:47:28;;;;;;;13.60;7.00;;;21.70;99.90;;;;;;5025881;28;20049;-41
2023/10/06 11:49:57;;;;;;;11.40;7.50;;;21.90;99.90;;;;;;5017547;28;20154;-41
2023/10/06 11:52:26;;;;;;;13.48;7.75;;;22.20;99.90;;;;;;5014453;28;20074;-40
2023/10/06 11:54:56;;;;;;;12.82;7.82;;;22.70;99.90;;;;;;5016834;28;20473;-41
2023/10/06 11:57:45;;;;;;;12.38;8.13;;;23.30;99.90;;;;;;5013892;28;20053;-43
2023/10/06 12:00:19;;;;;;;14.65;8.40;;;23.90;99.90;;;;;;5017939;28;20124;-41
2023/10/06 12:02:51;;;;;;;10.40;7.20;;;23.30;99.90;;;;;;5023053;28;20480;-40
2023/10/06 12:05:22;;;;;;;11.73;8.13;;;23.00;99.90;;;;;;5021364;28;20519;-41
2023/10/06 12:07:50;;;;;;;16.15;8.93;;;23.10;99.90;;;;;;5016021;28;20053;-40
2023/10/06 12:10:20;;;;;;;15.93;8.57;;;23.10;99.90;;;;;;5013139;28;20078;-41
2023/10/06 12:12:52;;;;;;;14.07;8.75;;;22.60;99.90;;;;;;5012363;28;20141;-42
2023/10/06 12:15:20;;;;;;;15.43;10.05;;;22.70;99.90;;;;;;5024078;28;20080;-41
2023/10/06 12:17:47;;;;;;;16.77;9.73;;;22.90;99.90;;;;;;5030197;28;20049;-41
2023/10/06 12:20:16;;;;;;;13.25;8.80;;;23.40;99.90;;;;;;5029002;28;20056;-41
2023/10/06 12:22:44;;;;;;;11.38;8.23;;;24.30;99.90;;;;;;5024365;28;20077;-42
2023/10/06 12:25:16;;;;;;;13.73;8.60;;;24.80;99.90;;;;;;5033842;28;20073;-37
2023/10/06 12:27:44;;;;;;;13.80;8.85;;;24.90;99.90;;;;;;5042217;28;20088;-43
2023/10/06 12:30:14;;;;;;;12.45;8.85;;;25.30;98.90;;;;;;5028364;28;20498;-40
2023/10/06 12:32:41;;;;;;;12.45;9.07;;;24.60;98.50;;;;;;5024267;28;20068;-42
2023/10/06 12:35:09;;;;;;;12.13;8.68;;;24.90;98.30;;;;;;5023579;28;20050;-42
2023/10/06 12:37:41;;;;;;;11.85;8.93;;;26.70;96.40;;;;;;5030670;28;20050;-40
2023/10/06 12:40:11;;;;;;;12.55;9.00;;;27.40;92.90;;;;;;5023593;28;20119;-47
2023/10/06 12:42:39;;;;;;;14.27;9.40;;;27.00;91.80;;;;;;5035606;28;20056;-43
2023/10/06 12:45:08;;;;;;;12.82;8.93;;;27.10;90.30;;;;;;5020810;28;20071;-38
2023/10/06 12:47:38;;;;;;;12.80;9.18;;;27.30;90.10;;;;;;5018247;28;20049;-42
2023/10/06 12:50:08;;;;;;;16.00;10.18;;;27.90;88.80;;;;;;5013111;28;20033;-45
2023/10/06 12:52:36;;;;;;;13.65;9.48;;;28.00;86.20;;;;;;5016853;28;20041;-41
2023/10/06 12:55:09;;;;;;;14.35;9.57;;;28.70;85.00;;;;;;5013509;28;20061;-41
2023/10/06 12:57:38;;;;;;;11.15;9.02;;;28.50;80.90;;;;;;5009483;28;20081;-40
2023/10/06 13:00:09;;;;;;;12.15;9.32;;;28.00;80.30;;;;;;5016338;28;20068;-39
2023/10/06 13:02:37;;;;;;;11.90;9.23;;;27.00;81.00;;;;;;5010084;28;20506;-39
2023/10/06 13:05:09;;;;;;;12.20;9.52;;;26.90;81.90;;;;;;5017163;28;20061;-40